Yorktown, Iowa
Current Conditions -  °F | °C
As of 6:55 AM on Monday 22 Dec 2014 (Local Time) from KICL Reporting Station
Haze Haze  
Wind Chill: 37°   Ceiling: 1000
Heat Index: 41°   Visibility: 5mi
Dew Point: 39°   Wind: 6mph
Humidity: 93%   Direction: 160°SSE
Pressure: 29.61"   Gusts: 12mph
Location:  40.73°N, 95.16°W
Report Text: KICL 221255Z AUTO 16005G10KT 5SM BR OVC010 05/04 A2961 RMK AO2
Loading
Personal Weather Stations






























Interactive Weather Map New forecast layout! Learn more

10-Day Weather Forecast

Advertisements
Track Severe Weather on mobile